Time,TemperatureF,DewpointF,PressureIn,WindDirection,WindDirectionDegrees,WindSpeedMPH,WindSpeedGustMPH,Humidity,HourlyPrecipIn,Conditions,Clouds,dailyrainin,SolarRadiationWatts/m^2,SoftwareType,DateUTC
2013-02-22 00:00:00,41.0,34.3,30.09,WSW,257,0.0,0.0,77,0.00,,---,0.00,0.00,VWS V14.01,2013-02-22 08:00:00,
2013-02-22 00:05:00,41.0,34.7,30.09,WSW,257,0.0,0.0,78,0.00,,---,0.00,0.00,VWS V14.01,2013-02-22 08:05:00,
2013-02-22 00:10:00,40.4,34.4,30.09,WSW,257,0.0,0.0,79,0.00,,---,0.00,0.00,VWS V14.01,2013-02-22 08:10:00,
2013-02-22 00:15:00,40.1,34.4,30.10,WSW,257,0.0,0.0,80,0.00,,---,0.00,0.00,VWS V14.01,2013-02-22 08:15:00,
2013-02-22 00:20:00,39.9,34.2,30.09,WSW,257,0.0,0.0,80,0.00,,---,0.00,0.00,VWS V14.01,2013-02-22 08:20:00,
2013-02-22 00:25:00,39.6,34.3,30.09,WSW,257,0.0,0.0,81,0.00,,---,0.00,0.00,VWS V14.01,2013-02-22 08:25:00,
2013-02-22 00:30:00,39.4,34.1,30.10,WSW,257,0.0,0.0,81,0.00,,---,0.00,0.00,VWS V14.01,2013-02-22 08:30:00,
2013-02-22 00:35:00,39.5,34.2,30.10,WSW,257,0.0,0.0,81,0.00,,---,0.00,0.00,VWS V14.01,2013-02-22 08:35:00,
2013-02-22 00:40:00,39.5,34.2,30.10,WSW,257,0.0,0.0,81,0.00,,---,0.00,0.00,VWS V14.01,2013-02-22 08:40:00,
2013-02-22 00:45:00,39.3,34.0,30.10,WSW,257,0.0,0.0,81,0.00,,---,0.00,0.00,VWS V14.01,2013-02-22 08:45:00,
2013-02-22 00:50:00,39.2,34.2,30.11,WSW,257,0.0,0.0,82,0.00,,---,0.00,0.00,VWS V14.01,2013-02-22 08:50:00,
2013-02-22 00:55:00,39.5,34.5,30.11,WSW,257,0.0,0.0,82,0.00,,---,0.00,0.00,VWS V14.01,2013-02-22 08:55:00,
2013-02-22 01:00:00,39.3,34.0,30.11,WSW,257,0.0,0.0,81,0.00,,---,0.00,0.00,VWS V14.01,2013-02-22 09:00:00,
2013-02-22 01:05:00,38.9,33.9,30.11,WSW,257,0.0,0.0,82,0.00,,---,0.00,0.00,VWS V14.01,2013-02-22 09:05:00,
2013-02-22 01:10:00,39.2,34.2,30.12,WSW,257,0.0,0.0,82,0.00,,---,0.00,0.00,VWS V14.01,2013-02-22 09:10:00,
2013-02-22 01:15:00,39.2,34.2,30.12,WSW,257,0.0,0.0,82,0.00,,---,0.00,0.00,VWS V14.01,2013-02-22 09:15:00,
2013-02-22 01:20:00,39.5,34.2,30.12,WSW,257,0.0,0.0,81,0.00,,---,0.00,0.00,VWS V14.01,2013-02-22 09:20:00,
2013-02-22 01:25:00,39.6,34.3,30.12,WSW,257,0.0,0.0,81,0.00,,---,0.00,0.00,VWS V14.01,2013-02-22 09:25:00,
2013-02-22 01:30:00,39.9,34.5,30.12,WSW,257,0.0,0.0,81,0.00,,---,0.00,0.00,VWS V14.01,2013-02-22 09:30:00,
2013-02-22 01:35:00,40.1,34.4,30.12,WSW,257,0.0,0.0,80,0.00,,---,0.00,0.00,VWS V14.01,2013-02-22 09:35:00,
2013-02-22 01:40:00,40.0,34.3,30.13,WSW,257,0.0,0.0,80,0.00,,---,0.00,0.00,VWS V14.01,2013-02-22 09:40:00,
2013-02-22 01:45:00,40.0,34.3,30.13,WSW,257,0.0,0.0,80,0.00,,---,0.00,0.00,VWS V14.01,2013-02-22 09:45:00,
2013-02-22 01:50:00,39.9,34.2,30.12,WSW,257,0.0,0.0,80,0.00,,---,0.00,0.00,VWS V14.01,2013-02-22 09:50:00,
2013-02-22 01:55:00,39.5,33.8,30.12,WSW,257,0.0,0.0,80,0.00,,---,0.00,0.00,VWS V14.01,2013-02-22 09:55:00,
2013-02-22 02:00:00,38.3,33.6,30.11,WSW,257,0.0,0.0,83,0.00,,---,0.00,0.00,VWS V14.01,2013-02-22 10:00:00,
2013-02-22 02:01:00,39.7,34.0,30.11,WSW,257,0.0,0.0,80,0.00,,---,0.00,0.00,VWS V14.01,2013-02-22 10:01:00,
2013-02-22 02:05:00,38.4,33.7,30.11,WSW,257,0.0,0.0,83,0.00,,---,0.00,0.00,VWS V14.01,2013-02-22 10:05:00,
2013-02-22 02:06:00,39.5,34.2,30.11,WSW,257,0.0,0.0,81,0.00,,---,0.00,0.00,VWS V14.01,2013-02-22 10:06:00,
2013-02-22 02:10:00,38.4,33.7,30.10,WSW,257,0.0,0.0,83,0.00,,---,0.00,0.00,VWS V14.01,2013-02-22 10:10:00,
2013-02-22 02:11:00,39.4,34.1,30.11,WSW,257,0.0,0.0,81,0.00,,---,0.00,0.00,VWS V14.01,2013-02-22 10:11:00,
2013-02-22 02:15:00,38.4,33.7,30.11,WSW,257,0.0,0.0,83,0.00,,---,0.00,0.00,VWS V14.01,2013-02-22 10:15:00,
2013-02-22 02:16:00,39.2,33.9,30.11,WSW,257,0.0,0.0,81,0.00,,---,0.00,0.00,VWS V14.01,2013-02-22 10:16:00,
2013-02-22 02:20:00,38.3,33.6,30.11,WSW,257,0.0,0.0,83,0.00,,---,0.00,0.00,VWS V14.01,2013-02-22 10:20:00,
2013-02-22 02:21:00,38.7,33.4,30.11,WSW,257,0.0,0.0,81,0.00,,---,0.00,0.00,VWS V14.01,2013-02-22 10:21:00,
2013-02-22 02:25:00,38.2,33.8,30.11,WSW,257,0.0,1.0,84,0.00,,---,0.00,0.00,VWS V14.01,2013-02-22 10:25:00,
2013-02-22 02:26:00,38.6,33.6,30.11,WSW,257,0.0,0.0,82,0.00,,---,0.00,0.00,VWS V14.01,2013-02-22 10:26:00,
2013-02-22 02:30:00,38.2,33.8,30.11,WSW,257,0.0,0.0,84,0.00,,---,0.00,0.00,VWS V14.01,2013-02-22 10:30:00,
2013-02-22 02:31:00,38.7,33.7,30.11,WSW,257,0.0,0.0,82,0.00,,---,0.00,0.00,VWS V14.01,2013-02-22 10:31:00,
2013-02-22 02:35:00,38.0,33.6,30.11,WSW,257,0.0,0.0,84,0.00,,---,0.00,0.00,VWS V14.01,2013-02-22 10:35:00,
2013-02-22 02:36:00,38.5,33.5,30.11,WSW,257,0.0,0.0,82,0.00,,---,0.00,0.00,VWS V14.01,2013-02-22 10:36:00,
2013-02-22 02:40:00,37.9,33.8,30.11,WSW,257,0.0,0.0,85,0.00,,---,0.00,0.00,VWS V14.01,2013-02-22 10:40:00,
2013-02-22 02:41:00,38.4,33.4,30.11,WSW,257,0.0,0.0,82,0.00,,---,0.00,0.00,VWS V14.01,2013-02-22 10:41:00,
2013-02-22 02:45:00,37.6,33.5,30.11,WSW,257,0.0,0.0,85,0.00,,---,0.00,0.00,VWS V14.01,2013-02-22 10:45:00,
2013-02-22 02:46:00,38.5,33.8,30.11,WSW,257,0.0,0.0,83,0.00,,---,0.00,0.00,VWS V14.01,2013-02-22 10:46:00,
2013-02-22 02:50:00,37.6,33.5,30.11,WSW,257,0.0,0.0,85,0.00,,---,0.00,0.00,VWS V14.01,2013-02-22 10:50:00,
2013-02-22 02:51:00,38.4,33.7,30.10,WSW,257,0.0,0.0,83,0.00,,---,0.00,0.00,VWS V14.01,2013-02-22 10:51:00,
2013-02-22 02:55:00,37.8,33.7,30.11,WSW,257,0.0,0.0,85,0.00,,---,0.00,0.00,VWS V14.01,2013-02-22 10:55:00,
2013-02-22 02:56:00,38.4,33.7,30.10,WSW,257,0.0,0.0,83,0.00,,---,0.00,0.00,VWS V14.01,2013-02-22 10:56:00,
2013-02-22 03:00:00,37.6,33.8,30.11,WSW,257,0.0,0.0,86,0.00,,---,0.00,0.00,VWS V14.01,2013-02-22 11:00:00,
2013-02-22 03:01:00,38.4,33.7,30.11,WSW,257,0.0,0.0,83,0.00,,---,0.00,0.00,VWS V14.01,2013-02-22 11:01:00,
2013-02-22 03:05:00,37.7,33.9,30.11,WSW,257,0.0,0.0,86,0.00,,---,0.00,0.00,VWS V14.01,2013-02-22 11:05:00,
2013-02-22 03:06:00,38.4,33.7,30.11,WSW,257,0.0,0.0,83,0.00,,---,0.00,0.00,VWS V14.01,2013-02-22 11:06:00,
2013-02-22 03:10:00,37.8,33.7,30.11,WSW,257,0.0,0.0,85,0.00,,---,0.00,0.00,VWS V14.01,2013-02-22 11:10:00,
2013-02-22 03:11:00,38.4,33.7,30.10,WSW,257,0.0,0.0,83,0.00,,---,0.00,0.00,VWS V14.01,2013-02-22 11:11:00,
2013-02-22 03:15:00,37.4,33.6,30.11,WSW,257,0.0,0.0,86,0.00,,---,0.00,0.00,VWS V14.01,2013-02-22 11:15:00,
2013-02-22 03:16:00,38.4,33.7,30.11,WSW,257,0.0,0.0,83,0.00,,---,0.00,0.00,VWS V14.01,2013-02-22 11:16:00,
2013-02-22 03:20:00,37.2,33.4,30.11,WSW,257,0.0,0.0,86,0.00,,---,0.00,0.00,VWS V14.01,2013-02-22 11:20:00,
2013-02-22 03:21:00,38.2,33.8,30.11,WSW,257,0.0,1.0,84,0.00,,---,0.00,0.00,VWS V14.01,2013-02-22 11:21:00,
2013-02-22 03:25:00,37.3,33.8,30.12,WSW,257,0.0,0.0,87,0.00,,---,0.00,0.00,VWS V14.01,2013-02-22 11:25:00,
2013-02-22 03:26:00,38.2,33.8,30.11,WSW,257,0.0,0.0,84,0.00,,---,0.00,0.00,VWS V14.01,2013-02-22 11:26:00,
2013-02-22 03:30:00,37.0,33.2,30.12,WSW,257,0.0,0.0,86,0.00,,---,0.00,0.00,VWS V14.01,2013-02-22 11:30:00,
2013-02-22 03:31:00,38.1,33.7,30.11,WSW,257,0.0,0.0,84,0.00,,---,0.00,0.00,VWS V14.01,2013-02-22 11:31:00,
2013-02-22 03:35:00,36.7,33.2,30.12,WSW,257,0.0,0.0,87,0.00,,---,0.00,0.00,VWS V14.01,2013-02-22 11:35:00,
2013-02-22 03:36:00,37.9,33.5,30.11,WSW,257,0.0,0.0,84,0.00,,---,0.00,0.00,VWS V14.01,2013-02-22 11:36:00,
2013-02-22 03:40:00,36.9,33.4,30.12,WSW,257,0.0,0.0,87,0.00,,---,0.00,0.00,VWS V14.01,2013-02-22 11:40:00,
2013-02-22 03:41:00,37.8,33.7,30.11,WSW,257,0.0,0.0,85,0.00,,---,0.00,0.00,VWS V14.01,2013-02-22 11:41:00,
2013-02-22 03:45:00,37.0,33.2,30.13,WSW,257,0.0,0.0,86,0.00,,---,0.00,0.00,VWS V14.01,2013-02-22 11:45:00,
2013-02-22 03:46:00,37.6,33.5,30.11,WSW,257,0.0,0.0,85,0.00,,---,0.00,0.00,VWS V14.01,2013-02-22 11:46:00,
2013-02-22 03:50:00,36.6,32.8,30.13,WSW,257,0.0,0.0,86,0.00,,---,0.00,0.00,VWS V14.01,2013-02-22 11:50:00,
2013-02-22 03:51:00,37.8,34.0,30.11,WSW,257,0.0,0.0,86,0.00,,---,0.00,0.00,VWS V14.01,2013-02-22 11:51:00,
2013-02-22 03:55:00,36.5,33.0,30.13,WSW,257,0.0,0.0,87,0.00,,---,0.00,0.00,VWS V14.01,2013-02-22 11:55:00,
2013-02-22 03:56:00,37.6,33.8,30.11,WSW,257,0.0,0.0,86,0.00,,---,0.00,0.00,VWS V14.01,2013-02-22 11:56:00,
2013-02-22 04:00:00,36.6,33.1,30.13,WSW,257,0.0,0.0,87,0.00,,---,0.00,0.00,VWS V14.01,2013-02-22 12:00:00,
2013-02-22 04:01:00,37.6,33.8,30.11,WSW,257,0.0,0.0,86,0.00,,---,0.00,0.00,VWS V14.01,2013-02-22 12:01:00,
2013-02-22 04:05:00,36.8,33.3,30.13,WSW,257,0.0,0.0,87,0.00,,---,0.00,0.00,VWS V14.01,2013-02-22 12:05:00,
2013-02-22 04:06:00,37.9,34.1,30.11,WSW,257,0.0,0.0,86,0.00,,---,0.00,0.00,VWS V14.01,2013-02-22 12:06:00,
2013-02-22 04:10:00,36.9,33.1,30.13,WSW,257,0.0,0.0,86,0.00,,---,0.00,0.00,VWS V14.01,2013-02-22 12:10:00,
2013-02-22 04:11:00,37.6,33.8,30.11,WSW,257,0.0,0.0,86,0.00,,---,0.00,0.00,VWS V14.01,2013-02-22 12:11:00,
2013-02-22 04:15:00,36.6,32.8,30.13,WSW,257,0.0,0.0,86,0.00,,---,0.00,0.00,VWS V14.01,2013-02-22 12:15:00,
2013-02-22 04:16:00,37.2,33.4,30.11,WSW,257,0.0,0.0,86,0.00,,---,0.00,0.00,VWS V14.01,2013-02-22 12:16:00,
2013-02-22 04:20:00,36.7,32.9,30.13,WSW,257,0.0,0.0,86,0.00,,---,0.00,0.00,VWS V14.01,2013-02-22 12:20:00,
2013-02-22 04:21:00,37.3,33.8,30.12,WSW,257,0.0,0.0,87,0.00,,---,0.00,0.00,VWS V14.01,2013-02-22 12:21:00,
2013-02-22 04:25:00,36.5,32.7,30.13,WSW,257,0.0,0.0,86,0.00,,---,0.00,0.00,VWS V14.01,2013-02-22 12:25:00,
2013-02-22 04:26:00,37.2,33.4,30.12,WSW,257,0.0,0.0,86,0.00,,---,0.00,0.00,VWS V14.01,2013-02-22 12:26:00,
2013-02-22 04:30:00,36.5,32.7,30.13,WSW,257,0.0,0.0,86,0.00,,---,0.00,0.00,VWS V14.01,2013-02-22 12:30:00,
2013-02-22 04:31:00,36.8,33.3,30.12,WSW,257,0.0,0.0,87,0.00,,---,0.00,0.00,VWS V14.01,2013-02-22 12:31:00,
2013-02-22 04:35:00,36.4,32.3,30.13,WSW,257,0.0,0.0,85,0.00,,---,0.00,0.00,VWS V14.01,2013-02-22 12:35:00,
2013-02-22 04:36:00,36.8,33.3,30.12,WSW,257,0.0,0.0,87,0.00,,---,0.00,0.00,VWS V14.01,2013-02-22 12:36:00,
2013-02-22 04:40:00,36.3,32.2,30.13,WSW,257,0.0,0.0,85,0.00,,---,0.00,0.00,VWS V14.01,2013-02-22 12:40:00,
2013-02-22 04:41:00,37.0,33.5,30.13,WSW,257,0.0,0.0,87,0.00,,---,0.00,0.00,VWS V14.01,2013-02-22 12:41:00,
2013-02-22 04:45:00,36.2,32.1,30.14,WSW,257,0.0,0.0,85,0.00,,---,0.00,0.00,VWS V14.01,2013-02-22 12:45:00,
2013-02-22 04:46:00,36.8,33.0,30.13,WSW,257,0.0,0.0,86,0.00,,---,0.00,0.00,VWS V14.01,2013-02-22 12:46:00,
2013-02-22 04:50:00,36.3,32.2,30.14,WSW,257,0.0,0.0,85,0.00,,---,0.00,0.00,VWS V14.01,2013-02-22 12:50:00,
2013-02-22 04:51:00,36.4,32.9,30.13,WSW,257,0.0,0.0,87,0.00,,---,0.00,0.00,VWS V14.01,2013-02-22 12:51:00,
2013-02-22 04:55:00,36.3,31.9,30.14,WSW,257,0.0,0.0,84,0.00,,---,0.00,0.00,VWS V14.01,2013-02-22 12:55:00,
2013-02-22 04:56:00,36.5,33.0,30.13,WSW,257,0.0,0.0,87,0.00,,---,0.00,0.00,VWS V14.01,2013-02-22 12:56:00,
2013-02-22 05:00:00,36.4,32.0,30.14,WSW,257,0.0,0.0,84,0.00,,---,0.00,0.00,VWS V14.01,2013-02-22 13:00:00,
2013-02-22 05:01:00,36.6,32.8,30.13,WSW,257,0.0,0.0,86,0.00,,---,0.00,0.00,VWS V14.01,2013-02-22 13:01:00,
2013-02-22 05:05:00,36.7,32.0,30.14,WSW,257,0.0,0.0,83,0.00,,---,0.00,0.00,VWS V14.01,2013-02-22 13:05:00,
2013-02-22 05:06:00,37.0,33.2,30.13,WSW,257,0.0,0.0,86,0.00,,---,0.00,0.00,VWS V14.01,2013-02-22 13:06:00,
2013-02-22 05:10:00,36.7,32.0,30.14,WSW,257,0.0,0.0,83,0.00,,---,0.00,0.00,VWS V14.01,2013-02-22 13:10:00,
2013-02-22 05:11:00,36.6,32.8,30.13,WSW,257,0.0,0.0,86,0.00,,---,0.00,0.00,VWS V14.01,2013-02-22 13:11:00,
2013-02-22 05:15:00,36.4,32.0,30.14,WSW,257,0.0,0.0,84,0.00,,---,0.00,0.00,VWS V14.01,2013-02-22 13:15:00,
2013-02-22 05:16:00,36.7,33.2,30.13,WSW,257,0.0,0.0,87,0.00,,---,0.00,0.00,VWS V14.01,2013-02-22 13:16:00,
2013-02-22 05:20:00,36.2,31.8,30.15,WSW,257,0.0,0.0,84,0.00,,---,0.00,0.00,VWS V14.01,2013-02-22 13:20:00,
2013-02-22 05:21:00,36.6,32.8,30.13,WSW,257,0.0,0.0,86,0.00,,---,0.00,0.00,VWS V14.01,2013-02-22 13:21:00,
2013-02-22 05:25:00,36.4,32.0,30.15,WSW,257,0.0,0.0,84,0.00,,---,0.00,0.00,VWS V14.01,2013-02-22 13:25:00,
2013-02-22 05:26:00,36.5,32.7,30.13,WSW,257,0.0,0.0,86,0.00,,---,0.00,0.00,VWS V14.01,2013-02-22 13:26:00,
2013-02-22 05:30:00,36.4,32.0,30.15,WSW,257,0.0,0.0,84,0.00,,---,0.00,2.00,VWS V14.01,2013-02-22 13:30:00,
2013-02-22 05:31:00,36.4,32.3,30.13,WSW,257,0.0,0.0,85,0.00,,---,0.00,0.00,VWS V14.01,2013-02-22 13:31:00,
2013-02-22 05:35:00,36.5,31.8,30.15,WSW,257,0.0,0.0,83,0.00,,---,0.00,2.00,VWS V14.01,2013-02-22 13:35:00,
2013-02-22 05:36:00,36.4,32.3,30.13,WSW,257,0.0,0.0,85,0.00,,---,0.00,0.00,VWS V14.01,2013-02-22 13:36:00,
2013-02-22 05:40:00,36.2,31.8,30.15,WSW,257,0.0,0.0,84,0.00,,---,0.00,3.00,VWS V14.01,2013-02-22 13:40:00,
2013-02-22 05:41:00,36.2,31.8,30.13,WSW,257,0.0,0.0,84,0.00,,---,0.00,0.00,VWS V14.01,2013-02-22 13:41:00,
2013-02-22 05:45:00,36.0,31.6,30.16,WSW,257,0.0,0.0,84,0.00,,---,0.00,3.00,VWS V14.01,2013-02-22 13:45:00,
2013-02-22 05:46:00,36.3,31.9,30.14,WSW,257,0.0,0.0,84,0.00,,---,0.00,0.00,VWS V14.01,2013-02-22 13:46:00,
2013-02-22 05:50:00,35.9,31.8,30.16,WSW,257,0.0,0.0,85,0.00,,---,0.00,5.00,VWS V14.01,2013-02-22 13:50:00,
2013-02-22 05:51:00,36.4,32.0,30.14,WSW,257,0.0,0.0,84,0.00,,---,0.00,0.00,VWS V14.01,2013-02-22 13:51:00,
2013-02-22 05:55:00,36.1,32.0,30.16,WSW,257,0.0,0.0,85,0.00,,---,0.00,7.00,VWS V14.01,2013-02-22 13:55:00,
2013-02-22 05:56:00,36.4,32.0,30.14,WSW,257,0.0,0.0,84,0.00,,---,0.00,0.00,VWS V14.01,2013-02-22 13:56:00,
2013-02-22 06:00:00,36.2,31.8,30.16,WSW,257,0.0,0.0,84,0.00,,---,0.00,7.00,VWS V14.01,2013-02-22 14:00:00,
2013-02-22 06:01:00,36.7,32.3,30.14,WSW,257,0.0,0.0,84,0.00,,---,0.00,0.00,VWS V14.01,2013-02-22 14:01:00,
2013-02-22 06:05:00,36.5,32.1,30.16,WSW,257,0.0,0.0,84,0.00,,---,0.00,9.00,VWS V14.01,2013-02-22 14:05:00,
2013-02-22 06:06:00,36.7,32.0,30.14,WSW,257,0.0,0.0,83,0.00,,---,0.00,0.00,VWS V14.01,2013-02-22 14:06:00,
2013-02-22 06:10:00,36.7,32.3,30.17,WSW,257,0.0,0.0,84,0.00,,---,0.00,9.00,VWS V14.01,2013-02-22 14:10:00,
2013-02-22 06:11:00,36.5,31.8,30.14,WSW,257,0.0,0.0,83,0.00,,---,0.00,0.00,VWS V14.01,2013-02-22 14:11:00,
2013-02-22 06:15:00,37.0,32.9,30.17,WSW,257,0.0,0.0,85,0.00,,---,0.00,10.00,VWS V14.01,2013-02-22 14:15:00,
2013-02-22 06:16:00,36.2,31.8,30.14,WSW,257,0.0,0.0,84,0.00,,---,0.00,0.00,VWS V14.01,2013-02-22 14:16:00,
2013-02-22 06:20:00,37.4,33.0,30.17,WSW,257,0.0,0.0,84,0.00,,---,0.00,10.00,VWS V14.01,2013-02-22 14:20:00,
2013-02-22 06:21:00,36.4,32.0,30.15,WSW,257,0.0,0.0,84,0.00,,---,0.00,0.00,VWS V14.01,2013-02-22 14:21:00,
2013-02-22 06:25:00,38.0,33.6,30.17,WSW,257,0.0,0.0,84,0.00,,---,0.00,12.00,VWS V14.01,2013-02-22 14:25:00,
2013-02-22 06:26:00,36.3,31.6,30.15,WSW,257,0.0,0.0,83,0.00,,---,0.00,2.00,VWS V14.01,2013-02-22 14:26:00,
2013-02-22 06:30:00,39.0,34.0,30.18,WSW,257,0.0,0.0,82,0.00,,---,0.00,14.00,VWS V14.01,2013-02-22 14:30:00,
2013-02-22 06:31:00,36.5,32.1,30.15,WSW,257,0.0,0.0,84,0.00,,---,0.00,2.00,VWS V14.01,2013-02-22 14:31:00,
2013-02-22 06:35:00,40.0,34.0,30.18,WSW,257,0.0,0.0,79,0.00,,---,0.00,16.00,VWS V14.01,2013-02-22 14:35:00,
2013-02-22 06:36:00,36.2,31.5,30.15,WSW,257,0.0,0.0,83,0.00,,---,0.00,3.00,VWS V14.01,2013-02-22 14:36:00,
2013-02-22 06:40:00,40.6,34.6,30.18,WSW,257,0.0,0.0,79,0.00,,---,0.00,17.00,VWS V14.01,2013-02-22 14:40:00,
2013-02-22 06:41:00,36.1,31.7,30.16,WSW,257,0.0,0.0,84,0.00,,---,0.00,3.00,VWS V14.01,2013-02-22 14:41:00,
2013-02-22 06:45:00,41.2,35.2,30.18,WSW,257,0.0,1.0,79,0.00,,---,0.00,19.00,VWS V14.01,2013-02-22 14:45:00,
2013-02-22 06:46:00,35.9,31.8,30.16,WSW,257,0.0,0.0,85,0.00,,---,0.00,5.00,VWS V14.01,2013-02-22 14:46:00,
2013-02-22 06:50:00,41.8,35.1,30.18,WSW,257,0.0,0.0,77,0.00,,---,0.00,21.00,VWS V14.01,2013-02-22 14:50:00,
2013-02-22 06:51:00,35.9,31.8,30.16,WSW,257,0.0,0.0,85,0.00,,---,0.00,5.00,VWS V14.01,2013-02-22 14:51:00,
2013-02-22 06:55:00,42.4,35.7,30.19,WSW,257,0.0,0.0,77,0.00,,---,0.00,24.00,VWS V14.01,2013-02-22 14:55:00,
2013-02-22 06:56:00,36.2,32.1,30.16,WSW,257,0.0,0.0,85,0.00,,---,0.00,7.00,VWS V14.01,2013-02-22 14:56:00,
2013-02-22 07:00:00,43.0,36.0,30.19,WSW,250,0.0,2.0,76,0.00,,---,0.00,63.00,VWS V14.01,2013-02-22 15:00:00,
2013-02-22 07:01:00,36.4,32.0,30.16,WSW,257,0.0,0.0,84,0.00,,---,0.00,7.00,VWS V14.01,2013-02-22 15:01:00,
2013-02-22 07:05:00,43.8,36.1,30.19,ESE,119,0.0,1.0,74,0.00,,---,0.00,63.00,VWS V14.01,2013-02-22 15:05:00,
2013-02-22 07:06:00,36.7,32.3,30.17,WSW,257,0.0,0.0,84,0.00,,---,0.00,9.00,VWS V14.01,2013-02-22 15:06:00,
2013-02-22 07:10:00,44.4,36.3,30.20,SSE,154,0.0,2.0,73,0.00,,---,0.00,60.00,VWS V14.01,2013-02-22 15:10:00,
2013-02-22 07:11:00,36.8,32.7,30.17,WSW,257,0.0,0.0,85,0.00,,---,0.00,10.00,VWS V14.01,2013-02-22 15:11:00,
2013-02-22 07:15:00,44.7,36.2,30.20,SE,144,0.0,4.0,72,0.00,,---,0.00,79.00,VWS V14.01,2013-02-22 15:15:00,
2013-02-22 07:16:00,37.2,33.1,30.17,WSW,257,0.0,0.0,85,0.00,,---,0.00,10.00,VWS V14.01,2013-02-22 15:16:00,
2013-02-22 07:20:00,45.1,36.6,30.20,South,174,0.0,2.0,72,0.00,,---,0.00,200.00,VWS V14.01,2013-02-22 15:20:00,
2013-02-22 07:21:00,37.7,33.3,30.17,WSW,257,0.0,0.0,84,0.00,,---,0.00,12.00,VWS V14.01,2013-02-22 15:21:00,
2013-02-22 07:25:00,45.7,36.8,30.20,SE,145,0.0,7.0,71,0.00,,---,0.00,264.00,VWS V14.01,2013-02-22 15:25:00,
2013-02-22 07:26:00,38.6,33.6,30.18,WSW,257,0.0,0.0,82,0.00,,---,0.00,12.00,VWS V14.01,2013-02-22 15:26:00,
2013-02-22 07:30:00,46.1,36.5,30.20,South,178,1.0,5.0,69,0.00,,---,0.00,225.00,VWS V14.01,2013-02-22 15:30:00,
2013-02-22 07:31:00,39.7,34.0,30.18,WSW,257,0.0,0.0,80,0.00,,---,0.00,14.00,VWS V14.01,2013-02-22 15:31:00,
2013-02-22 07:35:00,46.4,37.2,30.20,South,173,0.0,2.0,70,0.00,,---,0.00,147.00,VWS V14.01,2013-02-22 15:35:00,
2013-02-22 07:36:00,40.4,34.4,30.18,WSW,257,0.0,0.0,79,0.00,,---,0.00,17.00,VWS V14.01,2013-02-22 15:36:00,
2013-02-22 07:40:00,46.8,37.5,30.20,SE,130,0.0,1.0,70,0.00,,---,0.00,227.00,VWS V14.01,2013-02-22 15:40:00,
2013-02-22 07:41:00,41.0,35.0,30.18,WSW,257,0.0,1.0,79,0.00,,---,0.00,19.00,VWS V14.01,2013-02-22 15:41:00,
2013-02-22 07:45:00,47.3,37.7,30.20,East,85,1.0,4.0,69,0.00,,---,0.00,246.00,VWS V14.01,2013-02-22 15:45:00,
2013-02-22 07:46:00,41.6,35.3,30.19,WSW,257,0.0,0.0,78,0.00,,---,0.00,21.00,VWS V14.01,2013-02-22 15:46:00,
2013-02-22 07:50:00,47.9,38.2,30.20,South,173,0.0,2.0,69,0.00,,---,0.00,216.00,VWS V14.01,2013-02-22 15:50:00,
2013-02-22 07:51:00,42.3,35.6,30.18,WSW,257,0.0,0.0,77,0.00,,---,0.00,23.00,VWS V14.01,2013-02-22 15:51:00,
2013-02-22 07:55:00,48.5,38.4,30.20,SSE,163,0.0,5.0,68,0.00,,---,0.00,206.00,VWS V14.01,2013-02-22 15:55:00,
2013-02-22 07:56:00,42.8,35.8,30.19,WSW,257,0.0,1.0,76,0.00,,---,0.00,39.00,VWS V14.01,2013-02-22 15:56:00,
2013-02-22 08:00:00,48.8,38.3,30.20,SE,137,0.0,4.0,67,0.00,,---,0.00,155.00,VWS V14.01,2013-02-22 16:00:00,
2013-02-22 08:01:00,43.6,35.9,30.19,SE,124,0.0,1.0,74,0.00,,---,0.00,47.00,VWS V14.01,2013-02-22 16:01:00,
2013-02-22 08:05:00,49.1,37.9,30.20,SSE,152,0.0,2.0,65,0.00,,---,0.00,353.00,VWS V14.01,2013-02-22 16:05:00,
2013-02-22 08:06:00,44.2,36.1,30.19,SSE,153,0.0,2.0,73,0.00,,---,0.00,54.00,VWS V14.01,2013-02-22 16:06:00,
2013-02-22 08:10:00,49.9,39.4,30.20,SSE,159,0.0,2.0,67,0.00,,---,0.00,362.00,VWS V14.01,2013-02-22 16:10:00,
2013-02-22 08:11:00,44.6,36.2,30.20,SE,142,2.0,4.0,72,0.00,,---,0.00,61.00,VWS V14.01,2013-02-22 16:11:00,
2013-02-22 08:15:00,50.4,39.1,30.20,SSE,163,1.0,2.0,65,0.00,,---,0.00,374.00,VWS V14.01,2013-02-22 16:15:00,
2013-02-22 08:16:00,45.0,36.5,30.20,South,171,0.0,2.0,72,0.00,,---,0.00,125.00,VWS V14.01,2013-02-22 16:16:00,
2013-02-22 08:20:00,50.9,39.2,30.20,SSW,196,0.0,2.0,64,0.00,,---,0.00,385.00,VWS V14.01,2013-02-22 16:20:00,
2013-02-22 08:21:00,45.5,36.7,30.20,SE,143,6.0,7.0,71,0.00,,---,0.00,230.00,VWS V14.01,2013-02-22 16:21:00,
2013-02-22 08:25:00,51.5,38.9,30.20,SE,142,0.0,2.0,62,0.00,,---,0.00,395.00,VWS V14.01,2013-02-22 16:25:00,
2013-02-22 08:26:00,45.9,36.7,30.20,South,175,1.0,5.0,70,0.00,,---,0.00,246.00,VWS V14.01,2013-02-22 16:26:00,
2013-02-22 08:30:00,52.1,39.5,30.20,ESE,123,1.0,4.0,62,0.00,,---,0.00,404.00,VWS V14.01,2013-02-22 16:30:00,
2013-02-22 08:31:00,46.3,37.1,30.20,South,173,0.0,2.0,70,0.00,,---,0.00,188.00,VWS V14.01,2013-02-22 16:31:00,
2013-02-22 08:35:00,51.8,38.8,30.20,SSW,207,0.0,4.0,61,0.00,,---,0.00,416.00,VWS V14.01,2013-02-22 16:35:00,
2013-02-22 08:36:00,46.7,37.1,30.20,SSE,166,0.0,1.0,69,0.00,,---,0.00,181.00,VWS V14.01,2013-02-22 16:36:00,
2013-02-22 08:40:00,52.4,39.8,30.20,SE,132,0.0,4.0,62,0.00,,---,0.00,427.00,VWS V14.01,2013-02-22 16:40:00,
2013-02-22 08:41:00,47.1,37.5,30.20,ENE,78,0.0,4.0,69,0.00,,---,0.00,239.00,VWS V14.01,2013-02-22 16:41:00,
2013-02-22 08:45:00,52.6,39.1,30.20,SE,139,0.0,4.0,60,0.00,,---,0.00,434.00,VWS V14.01,2013-02-22 16:45:00,
2013-02-22 08:46:00,47.6,37.6,30.20,SSE,148,0.0,2.0,68,0.00,,---,0.00,260.00,VWS V14.01,2013-02-22 16:46:00,
2013-02-22 08:50:00,53.0,39.5,30.20,South,175,0.0,2.0,60,0.00,,---,0.00,443.00,VWS V14.01,2013-02-22 16:50:00,
2013-02-22 08:51:00,48.3,37.9,30.20,SSE,165,0.0,5.0,67,0.00,,---,0.00,160.00,VWS V14.01,2013-02-22 16:51:00,
2013-02-22 08:55:00,53.5,39.5,30.20,South,173,0.0,4.0,59,0.00,,---,0.00,450.00,VWS V14.01,2013-02-22 16:55:00,
2013-02-22 08:56:00,48.7,38.2,30.20,SE,132,1.0,4.0,67,0.00,,---,0.00,242.00,VWS V14.01,2013-02-22 16:56:00,
2013-02-22 09:00:00,53.5,38.7,30.20,SE,125,5.0,5.0,57,0.00,,---,0.00,460.00,VWS V14.01,2013-02-22 17:00:00,
2013-02-22 09:01:00,49.0,38.5,30.20,SSE,152,0.0,2.0,67,0.00,,---,0.00,350.00,VWS V14.01,2013-02-22 17:01:00,
2013-02-22 09:05:00,53.6,37.8,30.20,SSE,165,0.0,2.0,55,0.00,,---,0.00,469.00,VWS V14.01,2013-02-22 17:05:00,
2013-02-22 09:06:00,49.6,39.1,30.20,SSE,150,0.0,1.0,67,0.00,,---,0.00,362.00,VWS V14.01,2013-02-22 17:06:00,
2013-02-22 09:10:00,54.2,38.9,30.20,SSW,194,2.0,4.0,56,0.00,,---,0.00,476.00,VWS V14.01,2013-02-22 17:10:00,
2013-02-22 09:11:00,50.2,38.9,30.20,ESE,116,0.0,2.0,65,0.00,,---,0.00,374.00,VWS V14.01,2013-02-22 17:11:00,
2013-02-22 09:15:00,54.8,38.5,30.20,SSE,163,0.0,4.0,54,0.00,,---,0.00,480.00,VWS V14.01,2013-02-22 17:15:00,
2013-02-22 09:16:00,50.7,39.0,30.20,South,178,1.0,2.0,64,0.00,,---,0.00,383.00,VWS V14.01,2013-02-22 17:16:00,
2013-02-22 09:20:00,55.6,40.2,30.20,SE,133,1.0,2.0,56,0.00,,---,0.00,499.00,VWS V14.01,2013-02-22 17:20:00,
2013-02-22 09:21:00,51.4,38.8,30.20,SSE,152,1.0,2.0,62,0.00,,---,0.00,392.00,VWS V14.01,2013-02-22 17:21:00,
2013-02-22 09:25:00,56.1,39.2,30.20,SE,132,0.0,5.0,53,0.00,,---,0.00,506.00,VWS V14.01,2013-02-22 17:25:00,
2013-02-22 09:26:00,52.0,39.4,30.20,ESE,123,0.0,4.0,62,0.00,,---,0.00,402.00,VWS V14.01,2013-02-22 17:26:00,
2013-02-22 09:30:00,56.5,38.1,30.20,SSW,196,0.0,2.0,50,0.00,,---,0.00,515.00,VWS V14.01,2013-02-22 17:30:00,
2013-02-22 09:31:00,51.8,38.8,30.20,SSW,197,0.0,4.0,61,0.00,,---,0.00,344.00,VWS V14.01,2013-02-22 17:31:00,
2013-02-22 09:35:00,56.9,37.4,30.19,South,172,0.0,4.0,48,0.00,,---,0.00,524.00,VWS V14.01,2013-02-22 17:35:00,
2013-02-22 09:36:00,52.3,39.3,30.20,SSE,165,0.0,4.0,61,0.00,,---,0.00,422.00,VWS V14.01,2013-02-22 17:36:00,
2013-02-22 09:40:00,57.2,36.1,30.20,SSW,209,0.0,2.0,45,0.00,,---,0.00,527.00,VWS V14.01,2013-02-22 17:40:00,
2013-02-22 09:41:00,52.6,39.1,30.20,SSE,151,0.0,4.0,60,0.00,,---,0.00,434.00,VWS V14.01,2013-02-22 17:41:00,
2013-02-22 09:45:00,57.7,36.5,30.20,SSW,209,0.0,3.0,45,0.00,,---,0.00,532.00,VWS V14.01,2013-02-22 17:45:00,
2013-02-22 09:46:00,52.8,39.3,30.20,South,177,1.0,2.0,60,0.00,,---,0.00,439.00,VWS V14.01,2013-02-22 17:46:00,
2013-02-22 09:50:00,58.5,38.4,30.19,South,190,0.0,3.0,47,0.00,,---,0.00,541.00,VWS V14.01,2013-02-22 17:50:00,
2013-02-22 09:51:00,53.2,39.3,30.20,South,186,1.0,1.0,59,0.00,,---,0.00,448.00,VWS V14.01,2013-02-22 17:51:00,
2013-02-22 09:55:00,59.0,37.1,30.19,South,174,0.0,5.0,44,0.00,,---,0.00,545.00,VWS V14.01,2013-02-22 17:55:00,
2013-02-22 09:56:00,53.5,38.7,30.20,SSW,193,0.0,4.0,57,0.00,,---,0.00,453.00,VWS V14.01,2013-02-22 17:56:00,
2013-02-22 10:00:00,59.0,38.3,30.19,SE,144,0.0,2.0,46,0.00,,---,0.00,554.00,VWS V14.01,2013-02-22 18:00:00,
2013-02-22 10:01:00,53.6,37.8,30.20,SSE,165,0.0,2.0,55,0.00,,---,0.00,462.00,VWS V14.01,2013-02-22 18:01:00,
2013-02-22 10:05:00,60.0,36.2,30.19,WSW,237,0.0,3.0,41,0.00,,---,0.00,559.00,VWS V14.01,2013-02-22 18:05:00,
2013-02-22 10:06:00,54.0,39.1,30.20,South,170,1.0,4.0,57,0.00,,---,0.00,478.00,VWS V14.01,2013-02-22 18:06:00,
2013-02-22 10:10:00,60.4,39.0,30.19,WSW,237,0.0,1.0,45,0.00,,---,0.00,568.00,VWS V14.01,2013-02-22 18:10:00,
2013-02-22 10:11:00,54.5,39.1,30.20,SW,222,1.0,4.0,56,0.00,,---,0.00,480.00,VWS V14.01,2013-02-22 18:11:00,
2013-02-22 10:15:00,60.6,36.8,30.19,SSW,200,0.0,1.0,41,0.00,,---,0.00,569.00,VWS V14.01,2013-02-22 18:15:00,
2013-02-22 10:16:00,55.2,39.8,30.20,SSE,159,1.0,2.0,56,0.00,,---,0.00,496.00,VWS V14.01,2013-02-22 18:16:00,
2013-02-22 10:20:00,61.0,37.2,30.18,South,191,0.0,2.0,41,0.00,,---,0.00,575.00,VWS V14.01,2013-02-22 18:20:00,
2013-02-22 10:21:00,56.0,39.1,30.20,SE,139,0.0,5.0,53,0.00,,---,0.00,504.00,VWS V14.01,2013-02-22 18:21:00,
2013-02-22 10:25:00,60.9,34.5,30.19,South,173,1.0,2.0,37,0.00,,---,0.00,576.00,VWS V14.01,2013-02-22 18:25:00,
2013-02-22 10:26:00,56.4,39.0,30.20,ENE,77,0.0,2.0,52,0.00,,---,0.00,511.00,VWS V14.01,2013-02-22 18:26:00,
2013-02-22 10:30:00,60.7,34.3,30.18,South,172,0.0,2.0,37,0.00,,---,0.00,580.00,VWS V14.01,2013-02-22 18:30:00,
2013-02-22 10:31:00,56.8,37.3,30.19,SSE,148,1.0,2.0,48,0.00,,---,0.00,522.00,VWS V14.01,2013-02-22 18:31:00,
2013-02-22 10:35:00,60.8,31.5,30.19,SW,223,0.0,1.0,33,0.00,,---,0.00,582.00,VWS V14.01,2013-02-22 18:35:00,
2013-02-22 10:36:00,57.1,36.0,30.19,SSW,209,0.0,2.0,45,0.00,,---,0.00,524.00,VWS V14.01,2013-02-22 18:36:00,
2013-02-22 10:40:00,61.0,32.5,30.18,SW,231,0.0,3.0,34,0.00,,---,0.00,583.00,VWS V14.01,2013-02-22 18:40:00,
2013-02-22 10:41:00,57.6,36.4,30.19,SSW,209,0.0,3.0,45,0.00,,---,0.00,531.00,VWS V14.01,2013-02-22 18:41:00,
2013-02-22 10:45:00,61.8,35.3,30.17,SW,232,0.0,5.0,37,0.00,,---,0.00,587.00,VWS V14.01,2013-02-22 18:45:00,
2013-02-22 10:46:00,58.2,36.4,30.20,SSW,195,0.0,3.0,44,0.00,,---,0.00,541.00,VWS V14.01,2013-02-22 18:46:00,
2013-02-22 10:50:00,62.2,34.2,30.17,WSW,245,3.0,5.0,35,0.00,,---,0.00,582.00,VWS V14.01,2013-02-22 18:50:00,
2013-02-22 10:51:00,59.0,38.8,30.19,SE,140,0.0,1.0,47,0.00,,---,0.00,543.00,VWS V14.01,2013-02-22 18:51:00,
2013-02-22 10:55:00,62.5,35.2,30.17,WSW,254,1.0,5.0,36,0.00,,---,0.00,587.00,VWS V14.01,2013-02-22 18:55:00,
2013-02-22 10:56:00,59.0,37.7,30.19,ESE,113,0.0,2.0,45,0.00,,---,0.00,550.00,VWS V14.01,2013-02-22 18:56:00,
2013-02-22 11:00:00,63.4,34.6,30.17,West,275,0.0,1.0,34,0.00,,---,0.00,589.00,VWS V14.01,2013-02-22 19:00:00,
2013-02-22 11:01:00,59.7,36.0,30.19,WSW,237,0.0,2.0,41,0.00,,---,0.00,561.00,VWS V14.01,2013-02-22 19:01:00,
2013-02-22 11:05:00,63.3,35.2,30.17,West,264,0.0,5.0,35,0.00,,---,0.00,590.00,VWS V14.01,2013-02-22 19:05:00,
2013-02-22 11:06:00,60.2,38.2,30.20,WSW,237,0.0,1.0,44,0.00,,---,0.00,564.00,VWS V14.01,2013-02-22 19:06:00,
2013-02-22 11:10:00,63.3,33.0,30.17,WSW,254,0.0,6.0,32,0.00,,---,0.00,590.00,VWS V14.01,2013-02-22 19:10:00,
2013-02-22 11:11:00,60.7,35.6,30.19,SSW,200,0.0,1.0,39,0.00,,---,0.00,569.00,VWS V14.01,2013-02-22 19:11:00,
2013-02-22 11:15:00,63.6,35.5,30.17,South,174,1.0,4.0,35,0.00,,---,0.00,592.00,VWS V14.01,2013-02-22 19:15:00,
2013-02-22 11:16:00,60.7,36.3,30.19,SSW,200,1.0,2.0,40,0.00,,---,0.00,568.00,VWS V14.01,2013-02-22 19:16:00,
2013-02-22 11:20:00,63.8,35.7,30.16,WSW,243,0.0,4.0,35,0.00,,---,0.00,590.00,VWS V14.01,2013-02-22 19:20:00,
2013-02-22 11:21:00,61.0,35.9,30.18,South,191,1.0,1.0,39,0.00,,---,0.00,576.00,VWS V14.01,2013-02-22 19:21:00,
2013-02-22 11:25:00,63.4,34.6,30.16,NW,310,0.0,4.0,34,0.00,,---,0.00,590.00,VWS V14.01,2013-02-22 19:25:00,
2013-02-22 11:26:00,60.7,33.6,30.18,South,173,0.0,2.0,36,0.00,,---,0.00,582.00,VWS V14.01,2013-02-22 19:26:00,
2013-02-22 11:30:00,64.1,35.2,30.16,South,179,4.0,5.0,34,0.00,,---,0.00,587.00,VWS V14.01,2013-02-22 19:30:00,
2013-02-22 11:31:00,60.8,32.3,30.19,SW,224,0.0,1.0,34,0.00,,---,0.00,582.00,VWS V14.01,2013-02-22 19:31:00,
2013-02-22 11:35:00,64.9,37.3,30.15,SW,221,0.0,6.0,36,0.00,,---,0.00,583.00,VWS V14.01,2013-02-22 19:35:00,
2013-02-22 11:36:00,60.9,31.6,30.18,SW,227,0.0,2.0,33,0.00,,---,0.00,585.00,VWS V14.01,2013-02-22 19:36:00,
2013-02-22 11:40:00,64.7,35.0,30.16,SW,221,0.0,4.0,33,0.00,,---,0.00,582.00,VWS V14.01,2013-02-22 19:40:00,
2013-02-22 11:41:00,61.5,34.3,30.17,SW,232,0.0,5.0,36,0.00,,---,0.00,583.00,VWS V14.01,2013-02-22 19:41:00,
2013-02-22 11:45:00,65.4,34.8,30.16,WSW,240,1.0,5.0,32,0.00,,---,0.00,582.00,VWS V14.01,2013-02-22 19:45:00,
2013-02-22 11:46:00,62.2,33.5,30.17,SW,232,0.0,2.0,34,0.00,,---,0.00,585.00,VWS V14.01,2013-02-22 19:46:00,
2013-02-22 11:50:00,65.6,33.4,30.15,SSW,211,0.0,4.0,30,0.00,,---,0.00,585.00,VWS V14.01,2013-02-22 19:50:00,
2013-02-22 11:51:00,62.4,35.1,30.17,WSW,250,2.0,5.0,36,0.00,,---,0.00,582.00,VWS V14.01,2013-02-22 19:51:00,
2013-02-22 11:55:00,65.4,32.3,30.15,SW,223,0.0,5.0,29,0.00,,---,0.00,585.00,VWS V14.01,2013-02-22 19:55:00,
2013-02-22 11:57:00,63.3,35.9,30.17,WSW,254,0.0,1.0,36,0.00,,---,0.00,589.00,VWS V14.01,2013-02-22 19:57:00,
2013-02-22 12:00:00,65.9,32.8,30.14,SW,231,0.0,6.0,29,0.00,,---,0.00,580.00,VWS V14.01,2013-02-22 20:00:00,
2013-02-22 12:02:00,63.3,34.5,30.17,NW,326,0.0,5.0,34,0.00,,---,0.00,592.00,VWS V14.01,2013-02-22 20:02:00,
2013-02-22 12:05:00,65.8,31.8,30.14,WNW,296,0.0,7.0,28,0.00,,---,0.00,576.00,VWS V14.01,2013-02-22 20:05:00,
2013-02-22 12:07:00,63.2,33.6,30.17,WSW,251,6.0,6.0,33,0.00,,---,0.00,592.00,VWS V14.01,2013-02-22 20:07:00,
2013-02-22 12:10:00,65.8,32.7,30.14,West,261,1.0,6.0,29,0.00,,---,0.00,576.00,VWS V14.01,2013-02-22 20:10:00,
2013-02-22 12:12:00,63.4,33.8,30.17,South,183,4.0,4.0,33,0.00,,---,0.00,590.00,VWS V14.01,2013-02-22 20:12:00,
2013-02-22 12:15:00,66.3,34.8,30.14,WSW,254,1.0,7.0,31,0.00,,---,0.00,571.00,VWS V14.01,2013-02-22 20:15:00,
2013-02-22 12:17:00,63.8,34.9,30.16,WSW,244,1.0,4.0,34,0.00,,---,0.00,592.00,VWS V14.01,2013-02-22 20:17:00,
2013-02-22 12:20:00,67.0,33.7,30.14,WSW,246,6.0,6.0,29,0.00,,---,0.00,564.00,VWS V14.01,2013-02-22 20:20:00,
2013-02-22 12:22:00,63.3,34.5,30.16,NW,310,0.0,4.0,34,0.00,,---,0.00,590.00,VWS V14.01,2013-02-22 20:22:00,
2013-02-22 12:25:00,66.1,33.0,30.13,WNW,286,0.0,6.0,29,0.00,,---,0.00,562.00,VWS V14.01,2013-02-22 20:25:00,
2013-02-22 12:27:00,64.0,35.8,30.16,SSW,200,0.0,5.0,35,0.00,,---,0.00,589.00,VWS V14.01,2013-02-22 20:27:00,
2013-02-22 12:30:00,65.3,33.1,30.13,WNW,296,0.0,4.0,30,0.00,,---,0.00,562.00,VWS V14.01,2013-02-22 20:30:00,
2013-02-22 12:32:00,65.0,34.5,30.15,SW,221,0.0,6.0,32,0.00,,---,0.00,583.00,VWS V14.01,2013-02-22 20:32:00,
2013-02-22 12:35:00,65.9,35.2,30.13,SSE,164,0.0,9.0,32,0.00,,---,0.00,550.00,VWS V14.01,2013-02-22 20:35:00,
2013-02-22 12:37:00,64.8,35.0,30.15,SSW,212,2.0,4.0,33,0.00,,---,0.00,582.00,VWS V14.01,2013-02-22 20:37:00,
2013-02-22 12:40:00,66.6,35.8,30.12,SW,236,2.0,5.0,32,0.00,,---,0.00,547.00,VWS V14.01,2013-02-22 20:40:00,
2013-02-22 12:42:00,65.3,34.7,30.16,SSW,208,0.0,5.0,32,0.00,,---,0.00,580.00,VWS V14.01,2013-02-22 20:42:00,
2013-02-22 12:45:00,67.4,36.5,30.13,SSW,211,3.0,6.0,32,0.00,,---,0.00,541.00,VWS V14.01,2013-02-22 20:45:00,
2013-02-22 12:47:00,65.6,35.8,30.15,WSW,248,2.0,4.0,33,0.00,,---,0.00,583.00,VWS V14.01,2013-02-22 20:47:00,
2013-02-22 12:50:00,67.7,35.2,30.12,WSW,248,0.0,6.0,30,0.00,,---,0.00,532.00,VWS V14.01,2013-02-22 20:50:00,
2013-02-22 12:52:00,65.5,32.4,30.15,SW,227,0.0,5.0,29,0.00,,---,0.00,582.00,VWS V14.01,2013-02-22 20:52:00,
2013-02-22 12:55:00,67.0,34.6,30.12,SSW,207,0.0,7.0,30,0.00,,---,0.00,527.00,VWS V14.01,2013-02-22 20:55:00,
2013-02-22 12:57:00,65.8,33.5,30.15,SW,229,0.0,6.0,30,0.00,,---,0.00,582.00,VWS V14.01,2013-02-22 20:57:00,
2013-02-22 13:00:00,66.8,35.2,30.12,WSW,257,0.0,5.0,31,0.00,,---,0.00,515.00,VWS V14.01,2013-02-22 21:00:00,
2013-02-22 13:02:00,65.9,31.9,30.14,West,262,0.0,7.0,28,0.00,,---,0.00,576.00,VWS V14.01,2013-02-22 21:02:00,
2013-02-22 13:05:00,65.7,35.1,30.12,South,189,3.0,10.0,32,0.00,,---,0.00,510.00,VWS V14.01,2013-02-22 21:05:00,
2013-02-22 13:07:00,65.8,34.3,30.14,SW,219,0.0,6.0,31,0.00,,---,0.00,578.00,VWS V14.01,2013-02-22 21:07:00,
2013-02-22 13:10:00,66.3,37.1,30.12,South,186,0.0,7.0,34,0.00,,---,0.00,503.00,VWS V14.01,2013-02-22 21:10:00,
2013-02-22 13:12:00,66.3,33.1,30.14,WSW,242,5.0,7.0,29,0.00,,---,0.00,576.00,VWS V14.01,2013-02-22 21:12:00,
2013-02-22 13:15:00,66.7,35.1,30.12,SSW,205,0.0,6.0,31,0.00,,---,0.00,494.00,VWS V14.01,2013-02-22 21:15:00,
2013-02-22 13:17:00,66.8,35.2,30.14,SW,228,1.0,5.0,31,0.00,,---,0.00,568.00,VWS V14.01,2013-02-22 21:17:00,
2013-02-22 13:20:00,66.2,34.7,30.12,NNW,332,3.0,5.0,31,0.00,,---,0.00,487.00,VWS V14.01,2013-02-22 21:20:00,
2013-02-22 13:22:00,66.5,33.3,30.13,WNW,285,1.0,6.0,29,0.00,,---,0.00,564.00,VWS V14.01,2013-02-22 21:22:00,
2013-02-22 13:25:00,65.7,33.5,30.12,NNW,344,4.0,8.0,30,0.00,,---,0.00,478.00,VWS V14.01,2013-02-22 21:25:00,
2013-02-22 13:27:00,65.3,33.1,30.13,WNW,293,0.0,4.0,30,0.00,,---,0.00,561.00,VWS V14.01,2013-02-22 21:27:00,
2013-02-22 13:30:00,65.3,34.7,30.12,WSW,254,0.0,7.0,32,0.00,,---,0.00,469.00,VWS V14.01,2013-02-22 21:30:00,
2013-02-22 13:32:00,65.8,35.9,30.13,SW,235,1.0,6.0,33,0.00,,---,0.00,552.00,VWS V14.01,2013-02-22 21:32:00,
2013-02-22 13:35:00,65.1,33.7,30.12,SW,221,1.0,9.0,31,0.00,,---,0.00,457.00,VWS V14.01,2013-02-22 21:35:00,
2013-02-22 13:37:00,66.5,35.8,30.12,SW,232,0.0,5.0,32,0.00,,---,0.00,552.00,VWS V14.01,2013-02-22 21:37:00,
2013-02-22 13:40:00,65.9,36.8,30.12,WSW,249,5.0,6.0,34,0.00,,---,0.00,450.00,VWS V14.01,2013-02-22 21:40:00,
2013-02-22 13:42:00,67.1,37.1,30.12,WSW,240,1.0,6.0,33,0.00,,---,0.00,539.00,VWS V14.01,2013-02-22 21:42:00,
2013-02-22 13:45:00,66.3,34.8,30.12,WSW,255,5.0,8.0,31,0.00,,---,0.00,438.00,VWS V14.01,2013-02-22 21:45:00,
2013-02-22 13:47:00,67.7,36.0,30.13,WSW,248,4.0,6.0,31,0.00,,---,0.00,532.00,VWS V14.01,2013-02-22 21:47:00,
2013-02-22 13:50:00,66.3,34.8,30.12,SW,229,2.0,6.0,31,0.00,,---,0.00,431.00,VWS V14.01,2013-02-22 21:50:00,
2013-02-22 13:52:00,67.1,33.8,30.12,SSW,200,3.0,7.0,29,0.00,,---,0.00,529.00,VWS V14.01,2013-02-22 21:52:00,
2013-02-22 13:55:00,66.0,33.7,30.12,NNW,332,0.0,9.0,30,0.00,,---,0.00,420.00,VWS V14.01,2013-02-22 21:55:00,
2013-02-22 13:57:00,66.9,34.5,30.12,WSW,257,0.0,5.0,30,0.00,,---,0.00,515.00,VWS V14.01,2013-02-22 21:57:00,
2013-02-22 14:00:00,65.4,34.0,30.12,NNW,341,1.0,10.0,31,0.00,,---,0.00,408.00,VWS V14.01,2013-02-22 22:00:00,
2013-02-22 14:02:00,65.9,35.2,30.12,WNW,300,1.0,10.0,32,0.00,,---,0.00,511.00,VWS V14.01,2013-02-22 22:02:00,
2013-02-22 14:05:00,65.0,34.5,30.12,WNW,302,0.0,7.0,32,0.00,,---,0.00,395.00,VWS V14.01,2013-02-22 22:05:00,
2013-02-22 14:07:00,66.1,35.4,30.12,South,178,7.0,7.0,32,0.00,,---,0.00,503.00,VWS V14.01,2013-02-22 22:07:00,
2013-02-22 14:10:00,65.8,35.2,30.11,WSW,255,3.0,4.0,32,0.00,,---,0.00,383.00,VWS V14.01,2013-02-22 22:10:00,
2013-02-22 14:12:00,66.7,35.1,30.12,SSW,203,0.0,6.0,31,0.00,,---,0.00,497.00,VWS V14.01,2013-02-22 22:12:00,
2013-02-22 14:15:00,66.6,35.0,30.11,WSW,254,0.0,7.0,31,0.00,,---,0.00,376.00,VWS V14.01,2013-02-22 22:15:00,
2013-02-22 14:17:00,66.3,34.8,30.12,NW,319,4.0,4.0,31,0.00,,---,0.00,489.00,VWS V14.01,2013-02-22 22:17:00,
2013-02-22 14:20:00,66.2,33.9,30.11,NW,309,0.0,5.0,30,0.00,,---,0.00,360.00,VWS V14.01,2013-02-22 22:20:00,
2013-02-22 14:22:00,65.9,34.4,30.12,WNW,288,0.0,8.0,31,0.00,,---,0.00,480.00,VWS V14.01,2013-02-22 22:22:00,
2013-02-22 14:25:00,65.7,35.1,30.12,NW,308,0.0,1.0,32,0.00,,---,0.00,355.00,VWS V14.01,2013-02-22 22:25:00,
2013-02-22 14:27:00,65.2,33.8,30.12,WSW,255,0.0,7.0,31,0.00,,---,0.00,469.00,VWS V14.01,2013-02-22 22:27:00,
2013-02-22 14:30:00,65.9,36.8,30.12,NNW,344,3.0,6.0,34,0.00,,---,0.00,343.00,VWS V14.01,2013-02-22 22:30:00,
2013-02-22 14:32:00,65.2,33.8,30.12,WSW,242,1.0,9.0,31,0.00,,---,0.00,460.00,VWS V14.01,2013-02-22 22:32:00,
2013-02-22 14:35:00,66.1,39.8,30.12,West,266,3.0,5.0,38,0.00,,---,0.00,330.00,VWS V14.01,2013-02-22 22:35:00,
2013-02-22 14:37:00,65.6,35.0,30.12,WSW,249,0.0,6.0,32,0.00,,---,0.00,450.00,VWS V14.01,2013-02-22 22:37:00,
2013-02-22 14:40:00,66.2,40.5,30.12,SW,226,4.0,7.0,39,0.00,,---,0.00,274.00,VWS V14.01,2013-02-22 22:40:00,
2013-02-22 14:42:00,66.1,34.6,30.12,WSW,252,6.0,6.0,31,0.00,,---,0.00,443.00,VWS V14.01,2013-02-22 22:42:00,
2013-02-22 14:45:00,65.5,39.2,30.12,WSW,250,0.0,6.0,38,0.00,,---,0.00,300.00,VWS V14.01,2013-02-22 22:45:00,
2013-02-22 14:47:00,66.3,35.6,30.12,WSW,247,3.0,6.0,32,0.00,,---,0.00,431.00,VWS V14.01,2013-02-22 22:47:00,
2013-02-22 14:50:00,65.0,41.4,30.12,West,261,6.0,10.0,42,0.00,,---,0.00,286.00,VWS V14.01,2013-02-22 22:50:00,
2013-02-22 14:52:00,66.1,36.2,30.12,NNW,336,6.0,7.0,33,0.00,,---,0.00,422.00,VWS V14.01,2013-02-22 22:52:00,
2013-02-22 14:55:00,64.8,41.2,30.12,SW,232,3.0,7.0,42,0.00,,---,0.00,281.00,VWS V14.01,2013-02-22 22:55:00,
2013-02-22 14:57:00,65.6,33.4,30.12,NW,309,4.0,10.0,30,0.00,,---,0.00,409.00,VWS V14.01,2013-02-22 22:57:00,
2013-02-22 15:00:00,64.4,41.4,30.12,WSW,240,7.0,7.0,43,0.00,,---,0.00,267.00,VWS V14.01,2013-02-22 23:00:00,
2013-02-22 15:02:00,65.0,32.8,30.12,WNW,302,0.0,7.0,30,0.00,,---,0.00,397.00,VWS V14.01,2013-02-22 23:02:00,
2013-02-22 15:05:00,64.0,41.7,30.11,SW,223,0.0,7.0,44,0.00,,---,0.00,258.00,VWS V14.01,2013-02-22 23:05:00,
2013-02-22 15:07:00,65.6,35.0,30.11,WNW,294,1.0,2.0,32,0.00,,---,0.00,383.00,VWS V14.01,2013-02-22 23:07:00,
2013-02-22 15:10:00,63.8,42.1,30.12,WSW,238,3.0,9.0,45,0.00,,---,0.00,248.00,VWS V14.01,2013-02-22 23:10:00,
2013-02-22 15:12:00,66.6,35.0,30.11,WSW,252,1.0,7.0,31,0.00,,---,0.00,378.00,VWS V14.01,2013-02-22 23:12:00,
2013-02-22 15:15:00,63.4,41.7,30.12,SW,235,1.0,9.0,45,0.00,,---,0.00,116.00,VWS V14.01,2013-02-22 23:15:00,
2013-02-22 15:17:00,66.3,34.8,30.11,WSW,252,0.0,4.0,31,0.00,,---,0.00,365.00,VWS V14.01,2013-02-22 23:17:00,
2013-02-22 15:20:00,63.0,41.9,30.12,WSW,257,3.0,8.0,46,0.00,,---,0.00,35.00,VWS V14.01,2013-02-22 23:20:00,
2013-02-22 15:22:00,65.7,35.1,30.12,NW,309,0.0,1.0,32,0.00,,---,0.00,357.00,VWS V14.01,2013-02-22 23:22:00,
2013-02-22 15:25:00,62.7,42.2,30.12,SW,226,3.0,9.0,47,0.00,,---,0.00,31.00,VWS V14.01,2013-02-22 23:25:00,
2013-02-22 15:27:00,66.0,35.3,30.12,WSW,244,0.0,6.0,32,0.00,,---,0.00,343.00,VWS V14.01,2013-02-22 23:27:00,
2013-02-22 15:30:00,62.3,41.8,30.12,WSW,244,8.0,8.0,47,0.00,,---,0.00,28.00,VWS V14.01,2013-02-22 23:30:00,
2013-02-22 15:32:00,66.1,39.8,30.12,West,266,0.0,5.0,38,0.00,,---,0.00,332.00,VWS V14.01,2013-02-22 23:32:00,
2013-02-22 15:35:00,61.8,41.4,30.12,WSW,257,1.0,8.0,47,0.00,,---,0.00,26.00,VWS V14.01,2013-02-22 23:35:00,
2013-02-22 15:37:00,66.2,40.5,30.12,South,188,3.0,5.0,39,0.00,,---,0.00,276.00,VWS V14.01,2013-02-22 23:37:00,
2013-02-22 15:40:00,61.7,40.2,30.12,WSW,252,0.0,6.0,45,0.00,,---,0.00,24.00,VWS V14.01,2013-02-22 23:40:00,
2013-02-22 15:42:00,65.6,40.0,30.12,WSW,242,0.0,6.0,39,0.00,,---,0.00,309.00,VWS V14.01,2013-02-22 23:42:00,
2013-02-22 15:45:00,61.6,40.6,30.12,SSW,192,6.0,6.0,46,0.00,,---,0.00,23.00,VWS V14.01,2013-02-22 23:45:00,
2013-02-22 15:47:00,65.0,40.8,30.12,SW,220,4.0,10.0,41,0.00,,---,0.00,285.00,VWS V14.01,2013-02-22 23:47:00,
2013-02-22 15:50:00,61.5,40.5,30.12,WSW,252,0.0,7.0,46,0.00,,---,0.00,21.00,VWS V14.01,2013-02-22 23:50:00,
2013-02-22 15:52:00,64.8,41.8,30.12,SW,232,2.0,7.0,43,0.00,,---,0.00,286.00,VWS V14.01,2013-02-22 23:52:00,
2013-02-22 15:55:00,61.2,39.7,30.12,West,260,1.0,5.0,45,0.00,,---,0.00,19.00,VWS V14.01,2013-02-22 23:55:00,
2013-02-22 15:57:00,64.5,41.5,30.12,WSW,254,2.0,4.0,43,0.00,,---,0.00,267.00,VWS V14.01,2013-02-22 23:57:00,
2013-02-22 16:00:00,60.9,39.4,30.12,WSW,254,2.0,5.0,45,0.00,,---,0.00,17.00,VWS V14.01,2013-02-23 00:00:00,
2013-02-22 16:02:00,64.1,41.8,30.11,SW,234,7.0,7.0,44,0.00,,---,0.00,260.00,VWS V14.01,2013-02-23 00:02:00,
2013-02-22 16:05:00,60.6,39.2,30.13,WSW,238,2.0,6.0,45,0.00,,---,0.00,16.00,VWS V14.01,2013-02-23 00:05:00,
2013-02-22 16:07:00,63.9,42.2,30.12,SW,217,5.0,9.0,45,0.00,,---,0.00,248.00,VWS V14.01,2013-02-23 00:07:00,
2013-02-22 16:10:00,60.2,38.8,30.13,WSW,249,0.0,5.0,45,0.00,,---,0.00,14.00,VWS V14.01,2013-02-23 00:10:00,
2013-02-22 16:12:00,63.5,41.8,30.12,SW,236,1.0,9.0,45,0.00,,---,0.00,179.00,VWS V14.01,2013-02-23 00:12:00,
2013-02-22 16:15:00,59.9,39.1,30.13,WSW,247,4.0,4.0,46,0.00,,---,0.00,12.00,VWS V14.01,2013-02-23 00:15:00,
2013-02-22 16:17:00,63.0,41.3,30.12,WSW,249,1.0,7.0,45,0.00,,---,0.00,37.00,VWS V14.01,2013-02-23 00:17:00,
2013-02-22 16:20:00,59.6,38.8,30.13,WSW,252,0.0,5.0,46,0.00,,---,0.00,10.00,VWS V14.01,2013-02-23 00:20:00,
2013-02-22 16:22:00,62.8,41.7,30.12,WSW,238,0.0,9.0,46,0.00,,---,0.00,31.00,VWS V14.01,2013-02-23 00:22:00,
2013-02-22 16:25:00,59.4,39.2,30.13,WSW,253,0.0,3.0,47,0.00,,---,0.00,9.00,VWS V14.01,2013-02-23 00:25:00,
2013-02-22 16:27:00,62.4,41.4,30.12,SW,223,2.0,8.0,46,0.00,,---,0.00,30.00,VWS V14.01,2013-02-23 00:27:00,
2013-02-22 16:30:00,59.0,39.4,30.13,WSW,250,0.0,1.0,48,0.00,,---,0.00,7.00,VWS V14.01,2013-02-23 00:30:00,
2013-02-22 16:32:00,61.8,41.4,30.12,WSW,251,0.0,8.0,47,0.00,,---,0.00,26.00,VWS V14.01,2013-02-23 00:32:00,
2013-02-22 16:35:00,58.9,39.3,30.13,WSW,243,2.0,4.0,48,0.00,,---,0.00,5.00,VWS V14.01,2013-02-23 00:35:00,
2013-02-22 16:37:00,61.7,40.2,30.12,WSW,252,0.0,6.0,45,0.00,,---,0.00,24.00,VWS V14.01,2013-02-23 00:37:00,
2013-02-22 16:40:00,58.3,39.2,30.14,WSW,254,1.0,4.0,49,0.00,,---,0.00,3.00,VWS V14.01,2013-02-23 00:40:00,
2013-02-22 16:42:00,61.6,40.6,30.12,WSW,248,0.0,4.0,46,0.00,,---,0.00,23.00,VWS V14.01,2013-02-23 00:42:00,
2013-02-22 16:45:00,58.0,39.5,30.14,WSW,254,1.0,3.0,50,0.00,,---,0.00,2.00,VWS V14.01,2013-02-23 00:45:00,
2013-02-22 16:47:00,61.5,40.5,30.12,West,261,1.0,6.0,46,0.00,,---,0.00,21.00,VWS V14.01,2013-02-23 00:47:00,
2013-02-22 16:50:00,57.6,39.1,30.14,WSW,250,0.0,5.0,50,0.00,,---,0.00,2.00,VWS V14.01,2013-02-23 00:50:00,
2013-02-22 16:52:00,61.2,39.7,30.12,West,263,1.0,5.0,45,0.00,,---,0.00,19.00,VWS V14.01,2013-02-23 00:52:00,
2013-02-22 16:55:00,57.2,39.2,30.14,WSW,250,0.0,4.0,51,0.00,,---,0.00,0.00,VWS V14.01,2013-02-23 00:55:00,
2013-02-22 16:57:00,61.0,39.5,30.12,WSW,255,2.0,5.0,45,0.00,,---,0.00,17.00,VWS V14.01,2013-02-23 00:57:00,
2013-02-22 17:00:00,56.7,39.3,30.14,WSW,250,0.0,1.0,52,0.00,,---,0.00,0.00,VWS V14.01,2013-02-23 01:00:00,
2013-02-22 17:02:00,60.6,39.2,30.13,WSW,244,0.0,6.0,45,0.00,,---,0.00,16.00,VWS V14.01,2013-02-23 01:02:00,
2013-02-22 17:05:00,56.4,39.0,30.14,WSW,250,0.0,3.0,52,0.00,,---,0.00,0.00,VWS V14.01,2013-02-23 01:05:00,
2013-02-22 17:07:00,60.3,38.9,30.13,WSW,249,2.0,5.0,45,0.00,,---,0.00,14.00,VWS V14.01,2013-02-23 01:07:00,
2013-02-22 17:10:00,56.3,38.9,30.15,WSW,250,0.0,4.0,52,0.00,,---,0.00,0.00,VWS V14.01,2013-02-23 01:10:00,
2013-02-22 17:12:00,60.0,39.2,30.13,WSW,249,0.0,1.0,46,0.00,,---,0.00,12.00,VWS V14.01,2013-02-23 01:12:00,
2013-02-22 17:15:00,55.9,37.5,30.15,WSW,250,0.0,4.0,50,0.00,,---,0.00,0.00,VWS V14.01,2013-02-23 01:15:00,
2013-02-22 17:17:00,59.7,38.9,30.13,WSW,252,0.0,5.0,46,0.00,,---,0.00,10.00,VWS V14.01,2013-02-23 01:17:00,
2013-02-22 17:20:00,55.7,36.3,30.15,WSW,250,0.0,2.0,48,0.00,,---,0.00,0.00,VWS V14.01,2013-02-23 01:20:00,
2013-02-22 17:22:00,59.4,39.2,30.13,WSW,252,0.0,3.0,47,0.00,,---,0.00,9.00,VWS V14.01,2013-02-23 01:22:00,
2013-02-22 17:25:00,55.4,35.5,30.15,WSW,250,0.0,1.0,47,0.00,,---,0.00,0.00,VWS V14.01,2013-02-23 01:25:00,
2013-02-22 17:27:00,59.0,38.8,30.13,WSW,250,0.0,1.0,47,0.00,,---,0.00,7.00,VWS V14.01,2013-02-23 01:27:00,
2013-02-22 17:30:00,55.1,34.7,30.15,WSW,250,0.0,1.0,46,0.00,,---,0.00,0.00,VWS V14.01,2013-02-23 01:30:00,
2013-02-22 17:32:00,59.0,39.4,30.13,WSW,258,1.0,4.0,48,0.00,,---,0.00,5.00,VWS V14.01,2013-02-23 01:32:00,
2013-02-22 17:35:00,54.9,34.5,30.15,WSW,250,0.0,3.0,46,0.00,,---,0.00,0.00,VWS V14.01,2013-02-23 01:35:00,
2013-02-22 17:37:00,58.4,39.3,30.14,WSW,247,0.0,3.0,49,0.00,,---,0.00,3.00,VWS V14.01,2013-02-23 01:37:00,
2013-02-22 17:40:00,54.7,34.9,30.15,WSW,250,0.0,1.0,47,0.00,,---,0.00,0.00,VWS V14.01,2013-02-23 01:40:00,
2013-02-22 17:42:00,58.0,39.0,30.14,WSW,254,1.0,3.0,49,0.00,,---,0.00,2.00,VWS V14.01,2013-02-23 01:42:00,
2013-02-22 17:45:00,54.4,35.1,30.15,WSW,250,0.0,1.0,48,0.00,,---,0.00,0.00,VWS V14.01,2013-02-23 01:45:00,
2013-02-22 17:47:00,57.7,39.2,30.14,WSW,250,0.0,5.0,50,0.00,,---,0.00,2.00,VWS V14.01,2013-02-23 01:47:00,
2013-02-22 17:50:00,54.0,34.8,30.16,WSW,250,0.0,0.0,48,0.00,,---,0.00,0.00,VWS V14.01,2013-02-23 01:50:00,
2013-02-22 17:52:00,57.3,39.3,30.14,WSW,250,0.0,4.0,51,0.00,,---,0.00,0.00,VWS V14.01,2013-02-23 01:52:00,
2013-02-22 17:55:00,53.7,35.0,30.16,WSW,250,0.0,1.0,49,0.00,,---,0.00,0.00,VWS V14.01,2013-02-23 01:55:00,
2013-02-22 17:57:00,56.8,39.4,30.14,WSW,250,0.0,1.0,52,0.00,,---,0.00,0.00,VWS V14.01,2013-02-23 01:57:00,
2013-02-22 18:00:00,53.2,34.5,30.16,WSW,250,0.0,0.0,49,0.00,,---,0.00,0.00,VWS V14.01,2013-02-23 02:00:00,
2013-02-22 18:02:00,56.4,39.0,30.14,WSW,250,0.0,3.0,52,0.00,,---,0.00,0.00,VWS V14.01,2013-02-23 02:02:00,
2013-02-22 18:05:00,53.2,34.5,30.16,WSW,250,0.0,1.0,49,0.00,,---,0.00,0.00,VWS V14.01,2013-02-23 02:05:00,
2013-02-22 18:07:00,56.3,38.9,30.15,WSW,250,0.0,4.0,52,0.00,,---,0.00,0.00,VWS V14.01,2013-02-23 02:07:00,
2013-02-22 18:10:00,53.0,34.9,30.15,WSW,250,0.0,1.0,50,0.00,,---,0.00,0.00,VWS V14.01,2013-02-23 02:10:00,
2013-02-22 18:12:00,55.9,37.5,30.15,WSW,250,0.0,4.0,50,0.00,,---,0.00,0.00,VWS V14.01,2013-02-23 02:12:00,
2013-02-22 18:15:00,52.8,35.7,30.15,WSW,250,0.0,1.0,52,0.00,,---,0.00,0.00,VWS V14.01,2013-02-23 02:15:00,
2013-02-22 18:17:00,55.7,36.8,30.15,WSW,250,0.0,2.0,49,0.00,,---,0.00,0.00,VWS V14.01,2013-02-23 02:17:00,
2013-02-22 18:20:00,52.2,35.6,30.16,WSW,250,0.0,0.0,53,0.00,,---,0.00,0.00,VWS V14.01,2013-02-23 02:20:00,
2013-02-22 18:22:00,55.4,35.5,30.15,WSW,250,0.0,1.0,47,0.00,,---,0.00,0.00,VWS V14.01,2013-02-23 02:22:00,
2013-02-22 18:25:00,52.1,35.5,30.16,WSW,250,0.0,2.0,53,0.00,,---,0.00,0.00,VWS V14.01,2013-02-23 02:25:00,
2013-02-22 18:27:00,55.1,34.7,30.15,WSW,250,0.0,1.0,46,0.00,,---,0.00,0.00,VWS V14.01,2013-02-23 02:27:00,
2013-02-22 18:30:00,52.4,36.7,30.16,WSW,250,0.0,0.0,55,0.00,,---,0.00,0.00,VWS V14.01,2013-02-23 02:30:00,
2013-02-22 18:32:00,54.9,34.5,30.15,WSW,250,0.0,3.0,46,0.00,,---,0.00,0.00,VWS V14.01,2013-02-23 02:32:00,
2013-02-22 18:35:00,52.4,37.2,30.16,WSW,250,0.0,0.0,56,0.00,,---,0.00,0.00,VWS V14.01,2013-02-23 02:35:00,
2013-02-22 18:37:00,54.7,34.9,30.15,WSW,250,0.0,1.0,47,0.00,,---,0.00,0.00,VWS V14.01,2013-02-23 02:37:00,
2013-02-22 18:40:00,52.0,36.3,30.16,WSW,250,0.0,0.0,55,0.00,,---,0.00,0.00,VWS V14.01,2013-02-23 02:40:00,
2013-02-22 18:42:00,54.4,35.1,30.15,WSW,250,0.0,1.0,48,0.00,,---,0.00,0.00,VWS V14.01,2013-02-23 02:42:00,
2013-02-22 18:45:00,51.8,35.2,30.16,WSW,250,0.0,0.0,53,0.00,,---,0.00,0.00,VWS V14.01,2013-02-23 02:45:00,
2013-02-22 18:47:00,54.0,34.8,30.16,WSW,250,0.0,0.0,48,0.00,,---,0.00,0.00,VWS V14.01,2013-02-23 02:47:00,
2013-02-22 18:50:00,51.3,35.7,30.16,WSW,250,0.0,3.0,55,0.00,,---,0.00,0.00,VWS V14.01,2013-02-23 02:50:00,
2013-02-22 18:52:00,53.7,34.5,30.16,WSW,250,0.0,1.0,48,0.00,,---,0.00,0.00,VWS V14.01,2013-02-23 02:52:00,
2013-02-22 18:55:00,50.9,35.3,30.16,WSW,250,0.0,3.0,55,0.00,,---,0.00,0.00,VWS V14.01,2013-02-23 02:55:00,
2013-02-22 18:57:00,53.3,34.7,30.16,WSW,250,0.0,0.0,49,0.00,,---,0.00,0.00,VWS V14.01,2013-02-23 02:57:00,
2013-02-22 19:00:00,51.0,35.9,30.16,WSW,250,0.0,1.0,56,0.00,,---,0.00,0.00,VWS V14.01,2013-02-23 03:00:00,
2013-02-22 19:02:00,53.2,34.5,30.16,WSW,250,0.0,1.0,49,0.00,,---,0.00,0.00,VWS V14.01,2013-02-23 03:02:00,
2013-02-22 19:05:00,50.6,35.5,30.16,WSW,250,0.0,0.0,56,0.00,,---,0.00,0.00,VWS V14.01,2013-02-23 03:05:00,
2013-02-22 19:07:00,53.1,35.0,30.15,WSW,250,0.0,1.0,50,0.00,,---,0.00,0.00,VWS V14.01,2013-02-23 03:07:00,
2013-02-22 19:10:00,50.1,35.5,30.16,WSW,250,0.0,0.0,57,0.00,,---,0.00,0.00,VWS V14.01,2013-02-23 03:10:00,
2013-02-22 19:12:00,52.8,35.7,30.15,WSW,250,0.0,1.0,52,0.00,,---,0.00,0.00,VWS V14.01,2013-02-23 03:12:00,
2013-02-22 19:15:00,49.8,35.6,30.16,WSW,250,0.0,0.0,58,0.00,,---,0.00,0.00,VWS V14.01,2013-02-23 03:15:00,
2013-02-22 19:17:00,52.2,35.1,30.16,WSW,250,0.0,0.0,52,0.00,,---,0.00,0.00,VWS V14.01,2013-02-23 03:17:00,
2013-02-22 19:20:00,49.4,35.7,30.17,WSW,250,0.0,0.0,59,0.00,,---,0.00,0.00,VWS V14.01,2013-02-23 03:20:00,
2013-02-22 19:22:00,52.1,35.0,30.16,WSW,250,1.0,2.0,52,0.00,,---,0.00,0.00,VWS V14.01,2013-02-23 03:22:00,
2013-02-22 19:25:00,49.2,36.3,30.17,WSW,250,0.0,0.0,61,0.00,,---,0.00,0.00,VWS V14.01,2013-02-23 03:25:00,
2013-02-22 19:27:00,52.4,36.7,30.16,WSW,250,0.0,0.0,55,0.00,,---,0.00,0.00,VWS V14.01,2013-02-23 03:27:00,
2013-02-22 19:30:00,48.9,36.1,30.17,WSW,250,0.0,0.0,61,0.00,,---,0.00,0.00,VWS V14.01,2013-02-23 03:30:00,
2013-02-22 19:32:00,52.4,37.2,30.16,WSW,250,0.0,0.0,56,0.00,,---,0.00,0.00,VWS V14.01,2013-02-23 03:32:00,
2013-02-22 19:35:00,48.7,36.3,30.16,WSW,250,0.0,0.0,62,0.00,,---,0.00,0.00,VWS V14.01,2013-02-23 03:35:00,
2013-02-22 19:37:00,52.1,36.4,30.16,WSW,250,0.0,0.0,55,0.00,,---,0.00,0.00,VWS V14.01,2013-02-23 03:37:00,
2013-02-22 19:40:00,49.0,36.2,30.17,WSW,250,0.0,0.0,61,0.00,,---,0.00,0.00,VWS V14.01,2013-02-23 03:40:00,
2013-02-22 19:42:00,51.8,35.2,30.16,WSW,250,0.0,0.0,53,0.00,,---,0.00,0.00,VWS V14.01,2013-02-23 03:42:00,
2013-02-22 19:45:00,48.8,36.4,30.16,WSW,250,0.0,0.0,62,0.00,,---,0.00,0.00,VWS V14.01,2013-02-23 03:45:00,
2013-02-22 19:47:00,51.3,35.7,30.16,WSW,250,0.0,3.0,55,0.00,,---,0.00,0.00,VWS V14.01,2013-02-23 03:47:00,
2013-02-22 19:50:00,48.5,36.5,30.16,WSW,250,0.0,0.0,63,0.00,,---,0.00,0.00,VWS V14.01,2013-02-23 03:50:00,
2013-02-22 19:52:00,50.9,35.3,30.16,WSW,250,2.0,3.0,55,0.00,,---,0.00,0.00,VWS V14.01,2013-02-23 03:52:00,
2013-02-22 19:55:00,48.1,36.1,30.16,WSW,250,0.0,0.0,63,0.00,,---,0.00,0.00,VWS V14.01,2013-02-23 03:55:00,
2013-02-22 19:57:00,51.0,35.4,30.16,WSW,250,0.0,1.0,55,0.00,,---,0.00,0.00,VWS V14.01,2013-02-23 03:57:00,
2013-02-22 20:00:00,47.8,36.2,30.17,WSW,250,0.0,0.0,64,0.00,,---,0.00,0.00,VWS V14.01,2013-02-23 04:00:00,
2013-02-22 20:02:00,50.6,35.5,30.16,WSW,250,0.0,0.0,56,0.00,,---,0.00,0.00,VWS V14.01,2013-02-23 04:02:00,
2013-02-22 20:05:00,47.6,36.4,30.17,WSW,250,0.0,0.0,65,0.00,,---,0.00,0.00,VWS V14.01,2013-02-23 04:05:00,
2013-02-22 20:07:00,50.1,35.5,30.16,WSW,250,0.0,0.0,57,0.00,,---,0.00,0.00,VWS V14.01,2013-02-23 04:07:00,
2013-02-22 20:10:00,47.5,36.3,30.17,WSW,250,0.0,0.0,65,0.00,,---,0.00,0.00,VWS V14.01,2013-02-23 04:10:00,
2013-02-22 20:12:00,49.8,35.6,30.16,WSW,250,0.0,0.0,58,0.00,,---,0.00,0.00,VWS V14.01,2013-02-23 04:12:00,
2013-02-22 20:15:00,47.4,36.6,30.18,WSW,250,0.0,0.0,66,0.00,,---,0.00,0.00,VWS V14.01,2013-02-23 04:15:00,
2013-02-22 20:17:00,49.5,35.8,30.17,WSW,250,0.0,0.0,59,0.00,,---,0.00,0.00,VWS V14.01,2013-02-23 04:17:00,
2013-02-22 20:20:00,47.5,37.1,30.17,WSW,250,0.0,0.0,67,0.00,,---,0.00,0.00,VWS V14.01,2013-02-23 04:20:00,
2013-02-22 20:22:00,49.2,36.3,30.17,WSW,250,0.0,0.0,61,0.00,,---,0.00,0.00,VWS V14.01,2013-02-23 04:22:00,
2013-02-22 20:25:00,47.9,37.1,30.17,WSW,250,0.0,1.0,66,0.00,,---,0.00,0.00,VWS V14.01,2013-02-23 04:25:00,
2013-02-22 20:27:00,48.9,36.1,30.17,WSW,250,0.0,0.0,61,0.00,,---,0.00,0.00,VWS V14.01,2013-02-23 04:27:00,
2013-02-22 20:30:00,47.8,37.0,30.17,WSW,250,0.0,0.0,66,0.00,,---,0.00,0.00,VWS V14.01,2013-02-23 04:30:00,
2013-02-22 20:32:00,48.7,35.9,30.16,WSW,250,0.0,0.0,61,0.00,,---,0.00,0.00,VWS V14.01,2013-02-23 04:32:00,
2013-02-22 20:35:00,47.6,37.6,30.17,WSW,250,0.0,0.0,68,0.00,,---,0.00,0.00,VWS V14.01,2013-02-23 04:35:00,
2013-02-22 20:37:00,49.0,36.6,30.17,WSW,250,0.0,0.0,62,0.00,,---,0.00,0.00,VWS V14.01,2013-02-23 04:37:00,
2013-02-22 20:40:00,47.6,37.2,30.18,WSW,250,0.0,0.0,67,0.00,,---,0.00,0.00,VWS V14.01,2013-02-23 04:40:00,
2013-02-22 20:42:00,48.8,36.4,30.16,WSW,250,0.0,0.0,62,0.00,,---,0.00,0.00,VWS V14.01,2013-02-23 04:42:00,
2013-02-22 20:45:00,47.2,37.2,30.18,WSW,250,0.0,0.0,68,0.00,,---,0.00,0.00,VWS V14.01,2013-02-23 04:45:00,
2013-02-22 20:47:00,48.5,36.5,30.16,WSW,250,0.0,0.0,63,0.00,,---,0.00,0.00,VWS V14.01,2013-02-23 04:47:00,
2013-02-22 20:50:00,46.8,37.2,30.18,WSW,250,0.0,0.0,69,0.00,,---,0.00,0.00,VWS V14.01,2013-02-23 04:50:00,
2013-02-22 20:52:00,48.1,36.1,30.16,WSW,250,0.0,0.0,63,0.00,,---,0.00,0.00,VWS V14.01,2013-02-23 04:52:00,
2013-02-22 20:55:00,46.7,37.5,30.18,WSW,250,0.0,0.0,70,0.00,,---,0.00,0.00,VWS V14.01,2013-02-23 04:55:00,
2013-02-22 20:57:00,47.9,36.3,30.17,WSW,250,0.0,0.0,64,0.00,,---,0.00,0.00,VWS V14.01,2013-02-23 04:57:00,
2013-02-22 21:00:00,47.7,36.1,30.17,WSW,250,0.0,0.0,64,0.00,,---,0.00,0.00,VWS V14.01,2013-02-23 05:00:00,
2013-02-22 21:05:00,47.5,36.3,30.17,WSW,250,0.0,0.0,65,0.00,,---,0.00,0.00,VWS V14.01,2013-02-23 05:05:00,
2013-02-22 21:10:00,47.4,36.6,30.17,WSW,250,0.0,0.0,66,0.00,,---,0.00,0.00,VWS V14.01,2013-02-23 05:10:00,
2013-02-22 21:15:00,47.4,36.6,30.17,WSW,250,0.0,0.0,66,0.00,,---,0.00,0.00,VWS V14.01,2013-02-23 05:15:00,
2013-02-22 21:20:00,47.8,37.0,30.17,WSW,250,0.0,1.0,66,0.00,,---,0.00,0.00,VWS V14.01,2013-02-23 05:20:00,
2013-02-22 21:25:00,47.9,37.1,30.18,WSW,250,0.0,0.0,66,0.00,,---,0.00,0.00,VWS V14.01,2013-02-23 05:25:00,
2013-02-22 21:30:00,47.6,37.2,30.17,WSW,250,0.0,0.0,67,0.00,,---,0.00,0.00,VWS V14.01,2013-02-23 05:30:00,
2013-02-22 21:35:00,47.7,37.7,30.18,WSW,250,0.0,0.0,68,0.00,,---,0.00,0.00,VWS V14.01,2013-02-23 05:35:00,
2013-02-22 21:40:00,47.4,37.4,30.17,WSW,250,0.0,0.0,68,0.00,,---,0.00,0.00,VWS V14.01,2013-02-23 05:40:00,
2013-02-22 21:45:00,47.0,37.0,30.18,WSW,250,0.0,0.0,68,0.00,,---,0.00,0.00,VWS V14.01,2013-02-23 05:45:00,
2013-02-22 21:50:00,46.7,37.1,30.18,WSW,250,0.0,0.0,69,0.00,,---,0.00,0.00,VWS V14.01,2013-02-23 05:50:00,
2013-02-22 21:55:00,46.6,37.3,30.18,WSW,250,0.0,0.0,70,0.00,,---,0.00,0.00,VWS V14.01,2013-02-23 05:55:00,
2013-02-22 22:00:00,46.5,37.3,30.18,WSW,250,0.0,0.0,70,0.00,,---,0.00,0.00,VWS V14.01,2013-02-23 06:00:00,
2013-02-22 22:05:00,46.2,37.3,30.18,WSW,250,0.0,0.0,71,0.00,,---,0.00,0.00,VWS V14.01,2013-02-23 06:05:00,
2013-02-22 22:10:00,45.8,37.3,30.17,WSW,250,0.0,0.0,72,0.00,,---,0.00,0.00,VWS V14.01,2013-02-23 06:10:00,
2013-02-22 22:15:00,45.6,37.1,30.18,WSW,250,0.0,0.0,72,0.00,,---,0.00,0.00,VWS V14.01,2013-02-23 06:15:00,
2013-02-22 22:20:00,46.0,37.1,30.17,WSW,250,0.0,0.0,71,0.00,,---,0.00,0.00,VWS V14.01,2013-02-23 06:20:00,
2013-02-22 22:25:00,46.3,36.7,30.18,WSW,250,0.0,0.0,69,0.00,,---,0.00,0.00,VWS V14.01,2013-02-23 06:25:00,
2013-02-22 22:30:00,46.2,36.2,30.17,WSW,250,0.0,0.0,68,0.00,,---,0.00,0.00,VWS V14.01,2013-02-23 06:30:00,
2013-02-22 22:35:00,46.1,36.1,30.17,WSW,250,0.0,0.0,68,0.00,,---,0.00,0.00,VWS V14.01,2013-02-23 06:35:00,
2013-02-22 22:40:00,45.8,36.2,30.17,WSW,250,0.0,0.0,69,0.00,,---,0.00,0.00,VWS V14.01,2013-02-23 06:40:00,
2013-02-22 22:45:00,45.6,36.0,30.18,WSW,250,0.0,0.0,69,0.00,,---,0.00,0.00,VWS V14.01,2013-02-23 06:45:00,
2013-02-22 22:50:00,45.3,36.1,30.17,WSW,250,0.0,0.0,70,0.00,,---,0.00,0.00,VWS V14.01,2013-02-23 06:50:00,
2013-02-22 22:55:00,45.2,36.0,30.18,WSW,250,0.0,0.0,70,0.00,,---,0.00,0.00,VWS V14.01,2013-02-23 06:55:00,
2013-02-22 23:00:00,45.1,35.9,30.17,WSW,250,0.0,0.0,70,0.00,,---,0.00,0.00,VWS V14.01,2013-02-23 07:00:00,
2013-02-22 23:05:00,44.9,36.1,30.17,WSW,250,0.0,0.0,71,0.00,,---,0.00,0.00,VWS V14.01,2013-02-23 07:05:00,
2013-02-22 23:10:00,44.4,36.0,30.18,WSW,250,0.0,0.0,72,0.00,,---,0.00,0.00,VWS V14.01,2013-02-23 07:10:00,
2013-02-22 23:15:00,44.4,36.3,30.18,WSW,250,0.0,0.0,73,0.00,,---,0.00,0.00,VWS V14.01,2013-02-23 07:15:00,
2013-02-22 23:20:00,44.5,36.0,30.18,WSW,250,0.0,0.0,72,0.00,,---,0.00,0.00,VWS V14.01,2013-02-23 07:20:00,
2013-02-22 23:25:00,44.1,36.0,30.17,WSW,250,0.0,0.0,73,0.00,,---,0.00,0.00,VWS V14.01,2013-02-23 07:25:00,
2013-02-22 23:30:00,43.9,35.8,30.18,WSW,250,0.0,0.0,73,0.00,,---,0.00,0.00,VWS V14.01,2013-02-23 07:30:00,
2013-02-22 23:35:00,43.8,35.7,30.17,WSW,250,0.0,0.0,73,0.00,,---,0.00,0.00,VWS V14.01,2013-02-23 07:35:00,
2013-02-22 23:40:00,43.5,35.8,30.17,WSW,250,0.0,0.0,74,0.00,,---,0.00,0.00,VWS V14.01,2013-02-23 07:40:00,
2013-02-22 23:45:00,43.4,35.7,30.17,WSW,250,0.0,0.0,74,0.00,,---,0.00,0.00,VWS V14.01,2013-02-23 07:45:00,
2013-02-22 23:50:00,43.1,35.4,30.17,WSW,250,0.0,0.0,74,0.00,,---,0.00,0.00,VWS V14.01,2013-02-23 07:50:00,
2013-02-22 23:55:00,43.0,35.6,30.17,WSW,250,0.0,0.0,75,0.00,,---,0.00,0.00,VWS V14.01,2013-02-23 07:55:00,